createdAt,value
2022-09-23T00:10:05.821Z,10.68
2022-09-23T00:20:28.396Z,10.55
2022-09-23T00:30:51.249Z,10.55
2022-09-23T00:41:13.235Z,9.15
2022-09-23T00:51:39.386Z,7.82
2022-09-23T01:02:03.177Z,9.20
2022-09-23T01:12:44.039Z,8.27
2022-09-23T01:23:22.402Z,7.93
2022-09-23T01:33:53.288Z,8.82
2022-09-23T01:44:22.918Z,8.30
2022-09-23T01:54:52.155Z,9.00
2022-09-23T02:05:18.725Z,8.75
2022-09-23T02:15:47.521Z,7.67
2022-09-23T02:26:16.974Z,8.70
2022-09-23T02:36:47.009Z,8.60
2022-09-23T02:47:08.857Z,8.20
2022-09-23T02:57:31.681Z,9.30
2022-09-23T03:08:08.660Z,8.68
2022-09-23T03:18:37.380Z,8.93
2022-09-23T03:29:00.610Z,8.98
2022-09-23T03:39:32.215Z,8.25
2022-09-23T03:49:54.475Z,7.75
2022-09-23T04:00:17.944Z,7.35
2022-09-23T04:10:41.912Z,7.90
2022-09-23T04:21:05.069Z,8.93
2022-09-23T04:31:26.566Z,8.75
2022-09-23T04:41:49.770Z,7.95
2022-09-23T04:52:11.922Z,8.25
2022-09-23T05:02:35.655Z,8.68
2022-09-23T05:12:58.889Z,10.07
2022-09-23T05:23:22.246Z,9.05
2022-09-23T05:33:45.941Z,8.02
2022-09-23T05:44:08.689Z,11.88
2022-09-23T05:54:30.167Z,10.30
2022-09-23T06:04:53.099Z,8.52
2022-09-23T06:15:14.710Z,8.93
2022-09-23T06:25:39.410Z,9.50
2022-09-23T06:36:01.857Z,9.70
2022-09-23T06:46:25.206Z,7.78
2022-09-23T06:56:47.520Z,7.38
2022-09-23T07:07:11.479Z,8.02
2022-09-23T07:17:33.561Z,7.07
2022-09-23T07:27:58.323Z,5.78
2022-09-23T07:38:19.766Z,6.82
2022-09-23T07:48:42.978Z,5.57
2022-09-23T07:59:04.695Z,6.95
2022-09-23T08:09:29.712Z,4.93
2022-09-23T08:19:50.874Z,6.00
2022-09-23T08:30:14.174Z,4.60
2022-09-23T08:40:37.385Z,5.43
2022-09-23T08:51:06.505Z,3.90
2022-09-23T09:01:34.974Z,4.18
2022-09-23T09:12:04.023Z,3.65
2022-09-23T09:22:46.290Z,3.85
2022-09-23T09:33:16.008Z,4.38
2022-09-23T09:43:38.864Z,4.00
2022-09-23T09:54:22.961Z,3.55
2022-09-23T10:04:44.928Z,3.75
2022-09-23T10:15:28.601Z,3.13
2022-09-23T10:25:58.358Z,3.65
2022-09-23T10:36:21.720Z,2.00
2022-09-23T10:46:54.580Z,2.63
2022-09-23T10:57:41.579Z,3.10
2022-09-23T11:08:13.002Z,2.50
2022-09-23T11:18:51.453Z,2.65
2022-09-23T11:29:36.735Z,2.90
2022-09-23T11:40:03.524Z,2.60
2022-09-23T11:50:30.708Z,4.32
2022-09-23T12:01:01.540Z,3.00
2022-09-23T12:11:31.079Z,2.80
2022-09-23T12:22:15.187Z,2.92
2022-09-23T12:32:36.635Z,3.33
2022-09-23T12:43:01.153Z,3.40
2022-09-23T12:53:56.951Z,2.88
2022-09-23T13:05:02.667Z,2.78
2022-09-23T13:15:30.455Z,4.00
2022-09-23T13:25:56.688Z,2.80
2022-09-23T13:36:19.679Z,2.78
2022-09-23T13:46:46.725Z,2.90
2022-09-23T13:57:25.530Z,3.20
2022-09-23T14:07:48.859Z,2.90
2022-09-23T14:18:14.400Z,2.78
2022-09-23T14:28:37.308Z,3.00
2022-09-23T14:39:03.660Z,2.53
2022-09-23T14:49:27.503Z,2.60
2022-09-23T14:59:53.310Z,2.53
2022-09-23T15:10:23.426Z,2.25
2022-09-23T15:20:52.160Z,2.70
2022-09-23T15:31:16.033Z,2.63
2022-09-23T15:41:37.709Z,2.33
2022-09-23T15:52:02.093Z,2.90
2022-09-23T16:02:24.814Z,3.00
2022-09-23T16:12:48.184Z,3.20
2022-09-23T16:23:34.049Z,2.92
2022-09-23T16:33:57.487Z,3.75
2022-09-23T16:44:18.891Z,6.75
2022-09-23T16:54:43.262Z,4.55
2022-09-23T17:05:05.851Z,8.13
2022-09-23T17:15:29.016Z,8.10
2022-09-23T17:25:51.186Z,10.77
2022-09-23T17:36:15.007Z,7.90
2022-09-23T17:46:36.665Z,7.10
2022-09-23T17:56:59.333Z,8.45
2022-09-23T18:07:20.983Z,8.55
2022-09-23T18:17:47.949Z,10.30
2022-09-23T18:28:09.479Z,12.50
2022-09-23T18:38:33.243Z,17.13
2022-09-23T18:49:12.000Z,13.70
2022-09-23T18:59:34.859Z,15.77
2022-09-23T19:10:01.093Z,19.73
2022-09-23T19:20:24.735Z,24.13
2022-09-23T19:30:46.521Z,22.55
2022-09-23T19:41:10.317Z,20.52
2022-09-23T19:51:33.947Z,15.75
2022-09-23T20:02:00.407Z,15.57
2022-09-23T20:12:21.828Z,18.17
2022-09-23T20:22:44.552Z,17.25
2022-09-23T20:33:05.770Z,13.10
2022-09-23T20:43:29.300Z,12.52
2022-09-23T20:53:52.829Z,11.98
2022-09-23T21:04:16.513Z,13.63
2022-09-23T21:14:39.414Z,13.77
2022-09-23T21:25:27.044Z,13.77
2022-09-23T21:35:45.314Z,14.02
2022-09-23T21:46:11.475Z,13.02
2022-09-23T21:56:35.225Z,12.90
2022-09-23T22:07:00.083Z,12.98
2022-09-23T22:17:21.386Z,12.18
2022-09-23T22:27:57.859Z,10.73
2022-09-23T22:38:20.053Z,11.77
2022-09-23T22:48:43.217Z,11.40
2022-09-23T22:59:06.253Z,11.90
2022-09-23T23:09:29.948Z,11.80
2022-09-23T23:19:51.521Z,11.02
2022-09-23T23:30:14.737Z,11.05
2022-09-23T23:40:38.255Z,11.63
2022-09-23T23:51:02.020Z,11.50
